sensor_id;sensor_type;location;lat;lon;timestamp;temperature;humidity
65462;DHT22;53236;43.666;18.444;2022-12-29T00:01:54;1.40;99.90
65462;DHT22;53236;43.666;18.444;2022-12-29T00:04:21;1.30;99.90
65462;DHT22;53236;43.666;18.444;2022-12-29T00:06:46;1.40;99.90
65462;DHT22;53236;43.666;18.444;2022-12-29T00:09:13;1.30;99.90
65462;DHT22;53236;43.666;18.444;2022-12-29T00:11:39;1.40;99.90
65462;DHT22;53236;43.666;18.444;2022-12-29T00:14:05;1.30;99.90
65462;DHT22;53236;43.666;18.444;2022-12-29T00:16:49;1.30;99.90
65462;DHT22;53236;43.666;18.444;2022-12-29T00:19:15;1.30;99.90
65462;DHT22;53236;43.666;18.444;2022-12-29T00:21:59;1.40;99.90
65462;DHT22;53236;43.666;18.444;2022-12-29T00:24:46;1.40;99.90
65462;DHT22;53236;43.666;18.444;2022-12-29T00:27:28;1.40;99.90
65462;DHT22;53236;43.666;18.444;2022-12-29T00:30:18;1.50;99.90
65462;DHT22;53236;43.666;18.444;2022-12-29T00:33:12;1.50;99.90
65462;DHT22;53236;43.666;18.444;2022-12-29T00:36:00;1.50;99.90
65462;DHT22;53236;43.666;18.444;2022-12-29T00:38:28;1.50;99.90
65462;DHT22;53236;43.666;18.444;2022-12-29T00:41:13;1.30;99.90
65462;DHT22;53236;43.666;18.444;2022-12-29T00:43:56;1.40;99.90
65462;DHT22;53236;43.666;18.444;2022-12-29T00:46:35;1.40;99.90
65462;DHT22;53236;43.666;18.444;2022-12-29T00:49:01;1.40;99.90
65462;DHT22;53236;43.666;18.444;2022-12-29T00:51:46;1.40;99.90
65462;DHT22;53236;43.666;18.444;2022-12-29T00:54:12;1.40;99.90
65462;DHT22;53236;43.666;18.444;2022-12-29T00:56:38;1.40;99.90
65462;DHT22;53236;43.666;18.444;2022-12-29T00:59:07;1.20;99.90
65462;DHT22;53236;43.666;18.444;2022-12-29T01:01:34;1.00;99.90
65462;DHT22;53236;43.666;18.444;2022-12-29T01:04:00;1.10;99.90
65462;DHT22;53236;43.666;18.444;2022-12-29T01:06:26;1.10;99.90
65462;DHT22;53236;43.666;18.444;2022-12-29T01:08:52;1.10;99.90
65462;DHT22;53236;43.666;18.444;2022-12-29T01:11:36;1.10;99.90
65462;DHT22;53236;43.666;18.444;2022-12-29T01:14:02;1.20;99.90
65462;DHT22;53236;43.666;18.444;2022-12-29T01:16:28;1.10;99.90
65462;DHT22;53236;43.666;18.444;2022-12-29T01:18:55;1.10;99.90
65462;DHT22;53236;43.666;18.444;2022-12-29T01:21:21;0.90;99.90
65462;DHT22;53236;43.666;18.444;2022-12-29T01:23:47;0.80;99.90
65462;DHT22;53236;43.666;18.444;2022-12-29T01:26:14;0.80;99.90
65462;DHT22;53236;43.666;18.444;2022-12-29T01:28:41;0.70;99.90
65462;DHT22;53236;43.666;18.444;2022-12-29T01:31:11;0.50;99.90
65462;DHT22;53236;43.666;18.444;2022-12-29T01:33:37;0.50;99.90
65462;DHT22;53236;43.666;18.444;2022-12-29T01:36:08;0.50;99.90
65462;DHT22;53236;43.666;18.444;2022-12-29T01:38:35;0.50;99.90
65462;DHT22;53236;43.666;18.444;2022-12-29T01:41:02;0.40;99.90
65462;DHT22;53236;43.666;18.444;2022-12-29T01:46:25;0.50;99.90
65462;DHT22;53236;43.666;18.444;2022-12-29T01:48:56;0.50;99.90
65462;DHT22;53236;43.666;18.444;2022-12-29T01:51:25;0.50;99.90
65462;DHT22;53236;43.666;18.444;2022-12-29T01:53:52;0.60;99.90
65462;DHT22;53236;43.666;18.444;2022-12-29T01:56:19;0.50;99.90
65462;DHT22;53236;43.666;18.444;2022-12-29T01:58:49;0.60;99.90
65462;DHT22;53236;43.666;18.444;2022-12-29T02:01:18;0.50;99.90
65462;DHT22;53236;43.666;18.444;2022-12-29T02:03:45;0.30;99.90
65462;DHT22;53236;43.666;18.444;2022-12-29T02:06:27;0.30;99.90
65462;DHT22;53236;43.666;18.444;2022-12-29T02:08:55;0.30;99.90
65462;DHT22;53236;43.666;18.444;2022-12-29T02:11:23;0.40;99.90
65462;DHT22;53236;43.666;18.444;2022-12-29T02:13:49;0.50;99.90
65462;DHT22;53236;43.666;18.444;2022-12-29T02:16:26;0.50;99.90
65462;DHT22;53236;43.666;18.444;2022-12-29T02:33:13;0.30;99.90
65462;DHT22;53236;43.666;18.444;2022-12-29T02:36:10;0.50;99.90
65462;DHT22;53236;43.666;18.444;2022-12-29T02:41:42;0.50;99.90
65462;DHT22;53236;43.666;18.444;2022-12-29T02:52:16;0.50;99.90
65462;DHT22;53236;43.666;18.444;2022-12-29T02:54:43;0.40;99.90
65462;DHT22;53236;43.666;18.444;2022-12-29T02:59:58;0.10;99.90
65462;DHT22;53236;43.666;18.444;2022-12-29T03:05:31;0.10;99.90
65462;DHT22;53236;43.666;18.444;2022-12-29T03:10:48;0.00;99.90
65462;DHT22;53236;43.666;18.444;2022-12-29T03:24:47;-0.30;99.90
65462;DHT22;53236;43.666;18.444;2022-12-29T03:27:17;-0.20;99.90
65462;DHT22;53236;43.666;18.444;2022-12-29T03:29:50;-0.10;99.90
65462;DHT22;53236;43.666;18.444;2022-12-29T03:32:26;-0.10;99.90
65462;DHT22;53236;43.666;18.444;2022-12-29T03:34:54;-0.10;99.90
65462;DHT22;53236;43.666;18.444;2022-12-29T03:37:27;-0.10;99.90
65462;DHT22;53236;43.666;18.444;2022-12-29T03:39:54;-0.20;99.90
65462;DHT22;53236;43.666;18.444;2022-12-29T03:42:25;-0.20;99.90
65462;DHT22;53236;43.666;18.444;2022-12-29T03:44:54;-0.10;99.90
65462;DHT22;53236;43.666;18.444;2022-12-29T03:47:22;-0.10;99.90
65462;DHT22;53236;43.666;18.444;2022-12-29T03:49:48;-0.10;99.90
65462;DHT22;53236;43.666;18.444;2022-12-29T03:52:14;-0.20;99.90
65462;DHT22;53236;43.666;18.444;2022-12-29T03:54:40;-0.20;99.90
65462;DHT22;53236;43.666;18.444;2022-12-29T03:57:06;-0.20;99.90
65462;DHT22;53236;43.666;18.444;2022-12-29T03:59:31;-0.20;99.90
65462;DHT22;53236;43.666;18.444;2022-12-29T04:01:57;-0.10;99.90
65462;DHT22;53236;43.666;18.444;2022-12-29T04:04:23;-0.10;99.90
65462;DHT22;53236;43.666;18.444;2022-12-29T04:06:48;-0.10;99.90
65462;DHT22;53236;43.666;18.444;2022-12-29T04:09:14;-0.20;99.90
65462;DHT22;53236;43.666;18.444;2022-12-29T04:11:40;-0.30;99.90
65462;DHT22;53236;43.666;18.444;2022-12-29T04:14:05;-0.40;99.90
65462;DHT22;53236;43.666;18.444;2022-12-29T04:16:31;-0.40;99.90
65462;DHT22;53236;43.666;18.444;2022-12-29T04:18:58;-0.30;99.90
65462;DHT22;53236;43.666;18.444;2022-12-29T04:21:24;-0.40;99.90
65462;DHT22;53236;43.666;18.444;2022-12-29T04:23:50;-0.40;99.90
65462;DHT22;53236;43.666;18.444;2022-12-29T04:26:15;-0.40;99.90
65462;DHT22;53236;43.666;18.444;2022-12-29T04:28:41;-0.40;99.90
65462;DHT22;53236;43.666;18.444;2022-12-29T04:31:07;-0.40;99.90
65462;DHT22;53236;43.666;18.444;2022-12-29T04:33:32;-0.30;99.90
65462;DHT22;53236;43.666;18.444;2022-12-29T04:35:58;-0.30;99.90
65462;DHT22;53236;43.666;18.444;2022-12-29T04:38:24;-0.40;99.90
65462;DHT22;53236;43.666;18.444;2022-12-29T04:40:51;-0.40;99.90
65462;DHT22;53236;43.666;18.444;2022-12-29T04:43:16;-0.50;99.90
65462;DHT22;53236;43.666;18.444;2022-12-29T04:45:46;-0.50;99.90
65462;DHT22;53236;43.666;18.444;2022-12-29T04:48:12;-0.50;99.90
65462;DHT22;53236;43.666;18.444;2022-12-29T04:50:39;-0.50;99.90
65462;DHT22;53236;43.666;18.444;2022-12-29T04:53:05;-0.50;99.90
65462;DHT22;53236;43.666;18.444;2022-12-29T04:55:30;-0.40;99.90
65462;DHT22;53236;43.666;18.444;2022-12-29T04:57:56;-0.60;99.90
65462;DHT22;53236;43.666;18.444;2022-12-29T05:00:22;-0.60;99.90
65462;DHT22;53236;43.666;18.444;2022-12-29T05:02:48;-0.50;99.90
65462;DHT22;53236;43.666;18.444;2022-12-29T05:05:13;-0.60;99.90
65462;DHT22;53236;43.666;18.444;2022-12-29T05:07:39;-0.60;99.90
65462;DHT22;53236;43.666;18.444;2022-12-29T05:10:06;-0.50;99.90
65462;DHT22;53236;43.666;18.444;2022-12-29T05:12:33;-0.60;99.90
65462;DHT22;53236;43.666;18.444;2022-12-29T05:14:59;-0.70;99.90
65462;DHT22;53236;43.666;18.444;2022-12-29T05:17:26;-0.70;99.90
65462;DHT22;53236;43.666;18.444;2022-12-29T05:19:51;-0.70;99.90
65462;DHT22;53236;43.666;18.444;2022-12-29T05:22:17;-0.70;99.90
65462;DHT22;53236;43.666;18.444;2022-12-29T05:24:43;-0.70;99.90
65462;DHT22;53236;43.666;18.444;2022-12-29T05:27:09;-0.60;99.90
65462;DHT22;53236;43.666;18.444;2022-12-29T05:29:34;-0.60;99.90
65462;DHT22;53236;43.666;18.444;2022-12-29T05:32:00;-0.70;99.90
65462;DHT22;53236;43.666;18.444;2022-12-29T05:34:26;-0.70;99.90
65462;DHT22;53236;43.666;18.444;2022-12-29T05:36:52;-0.70;99.90
65462;DHT22;53236;43.666;18.444;2022-12-29T05:39:18;-0.80;99.90
65462;DHT22;53236;43.666;18.444;2022-12-29T05:41:43;-0.80;99.90
65462;DHT22;53236;43.666;18.444;2022-12-29T05:44:11;-0.70;99.90
65462;DHT22;53236;43.666;18.444;2022-12-29T05:46:36;-0.60;99.90
65462;DHT22;53236;43.666;18.444;2022-12-29T05:49:02;-0.60;99.90
65462;DHT22;53236;43.666;18.444;2022-12-29T05:51:28;-0.60;99.90
65462;DHT22;53236;43.666;18.444;2022-12-29T05:53:54;-0.50;99.90
65462;DHT22;53236;43.666;18.444;2022-12-29T05:56:20;-0.50;99.90
65462;DHT22;53236;43.666;18.444;2022-12-29T05:58:45;-0.50;99.90
65462;DHT22;53236;43.666;18.444;2022-12-29T06:01:11;-0.60;99.90
65462;DHT22;53236;43.666;18.444;2022-12-29T06:03:37;-0.60;99.90
65462;DHT22;53236;43.666;18.444;2022-12-29T06:06:02;-0.60;99.90
65462;DHT22;53236;43.666;18.444;2022-12-29T06:08:28;-0.60;99.90
65462;DHT22;53236;43.666;18.444;2022-12-29T06:10:54;-0.70;99.90
65462;DHT22;53236;43.666;18.444;2022-12-29T06:13:19;-0.60;99.90
65462;DHT22;53236;43.666;18.444;2022-12-29T06:15:48;-0.50;99.90
65462;DHT22;53236;43.666;18.444;2022-12-29T06:18:14;-0.40;99.90
65462;DHT22;53236;43.666;18.444;2022-12-29T06:20:40;-0.40;99.90
65462;DHT22;53236;43.666;18.444;2022-12-29T06:23:06;-0.40;99.90
65462;DHT22;53236;43.666;18.444;2022-12-29T06:25:31;-0.30;99.90
65462;DHT22;53236;43.666;18.444;2022-12-29T06:27:58;-0.30;99.90
65462;DHT22;53236;43.666;18.444;2022-12-29T06:30:24;-0.30;99.90
65462;DHT22;53236;43.666;18.444;2022-12-29T06:32:50;-0.30;99.90
65462;DHT22;53236;43.666;18.444;2022-12-29T06:35:16;-0.20;99.90
65462;DHT22;53236;43.666;18.444;2022-12-29T06:37:42;0.00;99.90
65462;DHT22;53236;43.666;18.444;2022-12-29T06:40:09;0.00;99.90
65462;DHT22;53236;43.666;18.444;2022-12-29T06:42:35;0.00;99.90
65462;DHT22;53236;43.666;18.444;2022-12-29T06:45:01;0.10;99.90
65462;DHT22;53236;43.666;18.444;2022-12-29T06:47:27;0.20;99.90
65462;DHT22;53236;43.666;18.444;2022-12-29T06:49:52;0.40;99.90
65462;DHT22;53236;43.666;18.444;2022-12-29T06:52:18;0.50;99.90
65462;DHT22;53236;43.666;18.444;2022-12-29T06:54:44;0.60;99.90
65462;DHT22;53236;43.666;18.444;2022-12-29T06:57:09;0.70;99.90
65462;DHT22;53236;43.666;18.444;2022-12-29T06:59:35;0.90;99.90
65462;DHT22;53236;43.666;18.444;2022-12-29T07:02:01;1.10;99.90
65462;DHT22;53236;43.666;18.444;2022-12-29T07:04:28;1.10;99.90
65462;DHT22;53236;43.666;18.444;2022-12-29T07:06:54;1.30;99.90
65462;DHT22;53236;43.666;18.444;2022-12-29T07:09:20;1.40;99.90
65462;DHT22;53236;43.666;18.444;2022-12-29T07:11:46;1.50;99.90
65462;DHT22;53236;43.666;18.444;2022-12-29T07:14:12;1.70;99.90
65462;DHT22;53236;43.666;18.444;2022-12-29T07:16:38;1.80;99.90
65462;DHT22;53236;43.666;18.444;2022-12-29T07:19:04;1.90;99.90
65462;DHT22;53236;43.666;18.444;2022-12-29T07:21:30;2.00;99.90
65462;DHT22;53236;43.666;18.444;2022-12-29T07:23:55;2.10;99.90
65462;DHT22;53236;43.666;18.444;2022-12-29T07:26:21;2.10;99.90
65462;DHT22;53236;43.666;18.444;2022-12-29T07:28:47;2.20;99.90
65462;DHT22;53236;43.666;18.444;2022-12-29T07:31:16;2.30;99.90
65462;DHT22;53236;43.666;18.444;2022-12-29T07:33:43;2.30;99.90
65462;DHT22;53236;43.666;18.444;2022-12-29T07:36:10;2.40;99.90
65462;DHT22;53236;43.666;18.444;2022-12-29T07:38:35;2.50;99.90
65462;DHT22;53236;43.666;18.444;2022-12-29T07:41:01;2.30;99.90
65462;DHT22;53236;43.666;18.444;2022-12-29T07:43:27;2.10;99.90
65462;DHT22;53236;43.666;18.444;2022-12-29T07:45:53;2.30;99.90
65462;DHT22;53236;43.666;18.444;2022-12-29T07:48:18;2.10;99.90
65462;DHT22;53236;43.666;18.444;2022-12-29T07:50:44;2.30;99.90
65462;DHT22;53236;43.666;18.444;2022-12-29T07:53:10;2.40;99.90
65462;DHT22;53236;43.666;18.444;2022-12-29T07:55:36;2.50;99.90
65462;DHT22;53236;43.666;18.444;2022-12-29T07:58:01;2.80;99.90
65462;DHT22;53236;43.666;18.444;2022-12-29T08:00:27;2.80;99.90
65462;DHT22;53236;43.666;18.444;2022-12-29T08:02:53;2.80;99.90
65462;DHT22;53236;43.666;18.444;2022-12-29T08:05:19;2.90;99.90
65462;DHT22;53236;43.666;18.444;2022-12-29T08:07:45;2.90;99.90
65462;DHT22;53236;43.666;18.444;2022-12-29T08:10:12;3.20;99.90
65462;DHT22;53236;43.666;18.444;2022-12-29T08:12:39;3.50;99.90
65462;DHT22;53236;43.666;18.444;2022-12-29T08:15:06;3.50;99.90
65462;DHT22;53236;43.666;18.444;2022-12-29T08:17:32;3.30;99.90
65462;DHT22;53236;43.666;18.444;2022-12-29T08:19:58;3.30;99.90
65462;DHT22;53236;43.666;18.444;2022-12-29T08:22:24;3.50;99.90
65462;DHT22;53236;43.666;18.444;2022-12-29T08:24:49;3.60;99.90
65462;DHT22;53236;43.666;18.444;2022-12-29T08:27:15;3.80;99.90
65462;DHT22;53236;43.666;18.444;2022-12-29T08:29:41;3.80;99.90
65462;DHT22;53236;43.666;18.444;2022-12-29T08:32:07;3.80;99.90
65462;DHT22;53236;43.666;18.444;2022-12-29T08:34:32;3.80;99.90
65462;DHT22;53236;43.666;18.444;2022-12-29T08:36:58;3.60;99.90
65462;DHT22;53236;43.666;18.444;2022-12-29T08:39:24;4.40;99.90
65462;DHT22;53236;43.666;18.444;2022-12-29T08:41:50;7.70;99.90
65462;DHT22;53236;43.666;18.444;2022-12-29T08:44:16;11.10;94.30
65462;DHT22;53236;43.666;18.444;2022-12-29T08:46:41;11.60;81.90
65462;DHT22;53236;43.666;18.444;2022-12-29T08:49:07;10.80;80.70
65462;DHT22;53236;43.666;18.444;2022-12-29T08:51:33;12.70;76.30
65462;DHT22;53236;43.666;18.444;2022-12-29T08:53:59;13.00;67.40
65462;DHT22;53236;43.666;18.444;2022-12-29T08:56:25;13.40;67.30
65462;DHT22;53236;43.666;18.444;2022-12-29T08:58:52;15.70;61.00
65462;DHT22;53236;43.666;18.444;2022-12-29T09:01:18;17.00;56.20
65462;DHT22;53236;43.666;18.444;2022-12-29T09:03:44;19.50;52.80
65462;DHT22;53236;43.666;18.444;2022-12-29T09:06:09;22.10;47.20
65462;DHT22;53236;43.666;18.444;2022-12-29T09:08:36;24.70;44.40
65462;DHT22;53236;43.666;18.444;2022-12-29T09:11:10;25.50;40.00
65462;DHT22;53236;43.666;18.444;2022-12-29T09:13:37;24.40;40.70
65462;DHT22;53236;43.666;18.444;2022-12-29T09:16:03;26.10;38.10
65462;DHT22;53236;43.666;18.444;2022-12-29T09:18:29;26.10;38.50
65462;DHT22;53236;43.666;18.444;2022-12-29T09:21:02;26.50;38.30
65462;DHT22;53236;43.666;18.444;2022-12-29T09:23:28;27.80;37.10
65462;DHT22;53236;43.666;18.444;2022-12-29T09:25:54;29.40;35.90
65462;DHT22;53236;43.666;18.444;2022-12-29T09:28:20;29.70;34.80
65462;DHT22;53236;43.666;18.444;2022-12-29T09:30:47;29.20;35.00
65462;DHT22;53236;43.666;18.444;2022-12-29T09:33:13;28.70;34.50
65462;DHT22;53236;43.666;18.444;2022-12-29T09:35:45;28.90;35.00
65462;DHT22;53236;43.666;18.444;2022-12-29T09:38:15;30.00;33.80
65462;DHT22;53236;43.666;18.444;2022-12-29T09:40:44;30.50;33.80
65462;DHT22;53236;43.666;18.444;2022-12-29T09:45:51;29.70;33.40
65462;DHT22;53236;43.666;18.444;2022-12-29T09:48:25;28.90;34.50
65462;DHT22;53236;43.666;18.444;2022-12-29T09:50:59;27.90;35.20
65462;DHT22;53236;43.666;18.444;2022-12-29T09:53:40;28.80;35.90
65462;DHT22;53236;43.666;18.444;2022-12-29T09:56:15;31.10;34.30
65462;DHT22;53236;43.666;18.444;2022-12-29T09:58:49;29.30;34.20
65462;DHT22;53236;43.666;18.444;2022-12-29T10:04:04;29.90;34.00
65462;DHT22;53236;43.666;18.444;2022-12-29T10:06:32;30.90;34.30
65462;DHT22;53236;43.666;18.444;2022-12-29T10:25:18;32.20;32.20
65462;DHT22;53236;43.666;18.444;2022-12-29T10:27:50;31.60;33.00
65462;DHT22;53236;43.666;18.444;2022-12-29T10:30:18;31.90;32.60
65462;DHT22;53236;43.666;18.444;2022-12-29T10:32:48;32.20;33.20
65462;DHT22;53236;43.666;18.444;2022-12-29T10:35:21;32.70;32.10
65462;DHT22;53236;43.666;18.444;2022-12-29T10:40:27;31.60;32.90
65462;DHT22;53236;43.666;18.444;2022-12-29T10:42:57;31.60;32.40
65462;DHT22;53236;43.666;18.444;2022-12-29T10:45:28;32.20;32.60
65462;DHT22;53236;43.666;18.444;2022-12-29T10:48:03;33.70;31.70
65462;DHT22;53236;43.666;18.444;2022-12-29T10:50:30;34.50;31.00
65462;DHT22;53236;43.666;18.444;2022-12-29T10:53:00;33.80;30.50
65462;DHT22;53236;43.666;18.444;2022-12-29T10:55:33;32.70;31.70
65462;DHT22;53236;43.666;18.444;2022-12-29T10:58:04;32.60;31.20
65462;DHT22;53236;43.666;18.444;2022-12-29T11:00:31;33.00;31.60
65462;DHT22;53236;43.666;18.444;2022-12-29T11:08:19;33.40;30.30
65462;DHT22;53236;43.666;18.444;2022-12-29T11:10:46;33.90;29.90
65462;DHT22;53236;43.666;18.444;2022-12-29T11:13:27;33.90;29.90
65462;DHT22;53236;43.666;18.444;2022-12-29T11:15:53;33.10;29.40
65462;DHT22;53236;43.666;18.444;2022-12-29T11:18:28;33.30;28.90
65462;DHT22;53236;43.666;18.444;2022-12-29T11:21:02;32.40;29.60
65462;DHT22;53236;43.666;18.444;2022-12-29T11:23:37;31.80;30.00
65462;DHT22;53236;43.666;18.444;2022-12-29T11:26:21;31.30;30.00
65462;DHT22;53236;43.666;18.444;2022-12-29T11:29:14;31.00;30.00
65462;DHT22;53236;43.666;18.444;2022-12-29T11:31:47;31.50;29.90
65462;DHT22;53236;43.666;18.444;2022-12-29T11:34:24;32.00;29.50
65462;DHT22;53236;43.666;18.444;2022-12-29T11:36:58;31.40;29.90
65462;DHT22;53236;43.666;18.444;2022-12-29T11:39:38;30.90;29.90
65462;DHT22;53236;43.666;18.444;2022-12-29T11:42:06;30.40;30.00
65462;DHT22;53236;43.666;18.444;2022-12-29T11:44:43;29.20;30.80
65462;DHT22;53236;43.666;18.444;2022-12-29T11:47:13;27.70;32.30
65462;DHT22;53236;43.666;18.444;2022-12-29T11:49:39;25.80;33.30
65462;DHT22;53236;43.666;18.444;2022-12-29T11:52:06;23.70;36.10
65462;DHT22;53236;43.666;18.444;2022-12-29T11:54:37;22.00;37.90
65462;DHT22;53236;43.666;18.444;2022-12-29T11:57:12;21.20;38.90
65462;DHT22;53236;43.666;18.444;2022-12-29T11:59:52;19.90;41.60
65462;DHT22;53236;43.666;18.444;2022-12-29T12:02:58;19.30;42.90
65462;DHT22;53236;43.666;18.444;2022-12-29T12:10:59;17.90;45.30
65462;DHT22;53236;43.666;18.444;2022-12-29T12:16:22;17.70;45.50
65462;DHT22;53236;43.666;18.444;2022-12-29T12:18:57;17.60;45.80
65462;DHT22;53236;43.666;18.444;2022-12-29T12:24:15;17.10;47.50
65462;DHT22;53236;43.666;18.444;2022-12-29T12:30:25;17.00;46.60
65462;DHT22;53236;43.666;18.444;2022-12-29T12:43:44;15.20;52.40
65462;DHT22;53236;43.666;18.444;2022-12-29T12:52:03;13.80;55.90
65462;DHT22;53236;43.666;18.444;2022-12-29T12:59:52;13.50;58.20
65462;DHT22;53236;43.666;18.444;2022-12-29T13:27:02;12.40;61.20
65462;DHT22;53236;43.666;18.444;2022-12-29T13:37:59;12.50;62.20
65462;DHT22;53236;43.666;18.444;2022-12-29T13:40:27;12.50;62.20
65462;DHT22;53236;43.666;18.444;2022-12-29T13:42:55;12.60;62.90
65462;DHT22;53236;43.666;18.444;2022-12-29T13:45:24;12.70;62.50
65462;DHT22;53236;43.666;18.444;2022-12-29T13:50:23;12.60;63.70
65462;DHT22;53236;43.666;18.444;2022-12-29T13:53:06;12.40;64.30
65462;DHT22;53236;43.666;18.444;2022-12-29T13:55:49;12.20;65.20
65462;DHT22;53236;43.666;18.444;2022-12-29T13:58:34;12.20;65.80
65462;DHT22;53236;43.666;18.444;2022-12-29T14:04:03;12.30;69.70
65462;DHT22;53236;43.666;18.444;2022-12-29T14:06:35;12.30;74.80
65462;DHT22;53236;43.666;18.444;2022-12-29T14:11:51;12.40;83.90
65462;DHT22;53236;43.666;18.444;2022-12-29T14:14:23;12.70;87.30
65462;DHT22;53236;43.666;18.444;2022-12-29T14:16:50;12.90;91.90
65462;DHT22;53236;43.666;18.444;2022-12-29T14:19:29;12.80;90.20
65462;DHT22;53236;43.666;18.444;2022-12-29T14:21:58;12.40;91.00
65462;DHT22;53236;43.666;18.444;2022-12-29T14:34:47;11.10;99.90
65462;DHT22;53236;43.666;18.444;2022-12-29T14:37:33;11.00;99.90
65462;DHT22;53236;43.666;18.444;2022-12-29T14:40:24;11.00;99.90
65462;DHT22;53236;43.666;18.444;2022-12-29T14:42:55;11.10;99.90
65462;DHT22;53236;43.666;18.444;2022-12-29T14:45:28;11.20;99.90
65462;DHT22;53236;43.666;18.444;2022-12-29T14:47:55;10.90;99.90
65462;DHT22;53236;43.666;18.444;2022-12-29T14:52:56;10.40;99.90
65462;DHT22;53236;43.666;18.444;2022-12-29T14:55:41;10.40;99.90
65462;DHT22;53236;43.666;18.444;2022-12-29T14:58:31;10.30;99.90
65462;DHT22;53236;43.666;18.444;2022-12-29T15:00:59;10.40;99.90
65462;DHT22;53236;43.666;18.444;2022-12-29T15:03:43;10.60;99.90
65462;DHT22;53236;43.666;18.444;2022-12-29T15:06:14;10.80;99.90
65462;DHT22;53236;43.666;18.444;2022-12-29T15:08:50;10.70;99.90
65462;DHT22;53236;43.666;18.444;2022-12-29T15:11:23;10.60;99.90
65462;DHT22;53236;43.666;18.444;2022-12-29T15:13:49;10.00;99.90
65462;DHT22;53236;43.666;18.444;2022-12-29T15:16:22;10.10;99.90
65462;DHT22;53236;43.666;18.444;2022-12-29T15:18:49;10.20;99.90
65462;DHT22;53236;43.666;18.444;2022-12-29T15:21:15;9.90;99.90
65462;DHT22;53236;43.666;18.444;2022-12-29T15:23:43;9.70;99.90
65462;DHT22;53236;43.666;18.444;2022-12-29T15:26:11;10.00;99.90
65462;DHT22;53236;43.666;18.444;2022-12-29T15:28:42;10.10;99.90
65462;DHT22;53236;43.666;18.444;2022-12-29T15:31:22;10.10;99.90
65462;DHT22;53236;43.666;18.444;2022-12-29T15:34:03;10.40;99.90
65462;DHT22;53236;43.666;18.444;2022-12-29T15:36:38;9.90;99.90
65462;DHT22;53236;43.666;18.444;2022-12-29T15:39:18;9.40;99.90
65462;DHT22;53236;43.666;18.444;2022-12-29T15:41:56;9.40;99.90
65462;DHT22;53236;43.666;18.444;2022-12-29T15:44:37;9.40;99.90
65462;DHT22;53236;43.666;18.444;2022-12-29T15:47:38;9.40;99.90
65462;DHT22;53236;43.666;18.444;2022-12-29T15:50:04;8.90;99.90
65462;DHT22;53236;43.666;18.444;2022-12-29T15:52:32;9.20;99.90
65462;DHT22;53236;43.666;18.444;2022-12-29T15:54:59;9.30;99.90
65462;DHT22;53236;43.666;18.444;2022-12-29T15:57:26;9.20;99.90
65462;DHT22;53236;43.666;18.444;2022-12-29T15:59:53;9.30;99.90
65462;DHT22;53236;43.666;18.444;2022-12-29T16:02:23;9.40;99.90
65462;DHT22;53236;43.666;18.444;2022-12-29T16:04:50;9.50;99.90
65462;DHT22;53236;43.666;18.444;2022-12-29T16:07:32;9.70;99.90
65462;DHT22;53236;43.666;18.444;2022-12-29T16:10:01;9.80;99.90
65462;DHT22;53236;43.666;18.444;2022-12-29T16:12:33;10.00;99.90
65462;DHT22;53236;43.666;18.444;2022-12-29T16:15:13;9.80;99.90
65462;DHT22;53236;43.666;18.444;2022-12-29T16:17:48;9.70;99.90
65462;DHT22;53236;43.666;18.444;2022-12-29T16:20:25;9.20;99.90
65462;DHT22;53236;43.666;18.444;2022-12-29T16:22:58;8.80;99.90
65462;DHT22;53236;43.666;18.444;2022-12-29T16:27:51;8.30;99.90
65462;DHT22;53236;43.666;18.444;2022-12-29T16:30:24;8.50;99.90
65462;DHT22;53236;43.666;18.444;2022-12-29T16:32:58;8.70;99.90
65462;DHT22;53236;43.666;18.444;2022-12-29T16:35:27;8.80;99.90
65462;DHT22;53236;43.666;18.444;2022-12-29T16:41:01;8.60;99.90
65462;DHT22;53236;43.666;18.444;2022-12-29T16:43:32;8.50;99.90
65462;DHT22;53236;43.666;18.444;2022-12-29T16:48:34;8.60;99.90
65462;DHT22;53236;43.666;18.444;2022-12-29T16:51:09;8.70;99.90
65462;DHT22;53236;43.666;18.444;2022-12-29T16:53:39;8.40;99.90
65462;DHT22;53236;43.666;18.444;2022-12-29T16:56:17;8.60;99.90
65462;DHT22;53236;43.666;18.444;2022-12-29T16:58:48;8.70;99.90
65462;DHT22;53236;43.666;18.444;2022-12-29T17:01:14;8.70;99.90
65462;DHT22;53236;43.666;18.444;2022-12-29T17:03:49;8.60;99.90
65462;DHT22;53236;43.666;18.444;2022-12-29T17:06:18;8.20;99.90
65462;DHT22;53236;43.666;18.444;2022-12-29T17:08:45;8.10;99.90
65462;DHT22;53236;43.666;18.444;2022-12-29T17:11:32;7.70;99.90
65462;DHT22;53236;43.666;18.444;2022-12-29T17:16:48;7.80;99.90
65462;DHT22;53236;43.666;18.444;2022-12-29T17:19:18;7.90;99.90
65462;DHT22;53236;43.666;18.444;2022-12-29T17:21:45;8.00;99.90
65462;DHT22;53236;43.666;18.444;2022-12-29T17:24:17;7.70;99.90
65462;DHT22;53236;43.666;18.444;2022-12-29T17:26:46;7.60;99.90
65462;DHT22;53236;43.666;18.444;2022-12-29T17:29:38;7.40;99.90
65462;DHT22;53236;43.666;18.444;2022-12-29T17:32:06;7.50;99.90
65462;DHT22;53236;43.666;18.444;2022-12-29T17:34:34;7.70;99.90
65462;DHT22;53236;43.666;18.444;2022-12-29T17:37:00;7.80;99.90
65462;DHT22;53236;43.666;18.444;2022-12-29T17:39:26;8.00;99.90
65462;DHT22;53236;43.666;18.444;2022-12-29T17:41:52;8.10;99.90
65462;DHT22;53236;43.666;18.444;2022-12-29T17:44:19;8.10;99.90
65462;DHT22;53236;43.666;18.444;2022-12-29T17:46:47;8.00;99.90
65462;DHT22;53236;43.666;18.444;2022-12-29T17:49:16;7.90;99.90
65462;DHT22;53236;43.666;18.444;2022-12-29T17:51:43;7.80;99.90
65462;DHT22;53236;43.666;18.444;2022-12-29T17:54:21;7.50;99.90
65462;DHT22;53236;43.666;18.444;2022-12-29T17:56:47;6.90;99.90
65462;DHT22;53236;43.666;18.444;2022-12-29T17:59:13;6.90;99.90
65462;DHT22;53236;43.666;18.444;2022-12-29T18:01:40;6.90;99.90
65462;DHT22;53236;43.666;18.444;2022-12-29T18:04:07;6.80;99.90
65462;DHT22;53236;43.666;18.444;2022-12-29T18:06:34;6.80;99.90
65462;DHT22;53236;43.666;18.444;2022-12-29T18:09:00;6.60;99.90
65462;DHT22;53236;43.666;18.444;2022-12-29T18:11:26;5.80;99.90
65462;DHT22;53236;43.666;18.444;2022-12-29T18:13:52;6.10;99.90
65462;DHT22;53236;43.666;18.444;2022-12-29T18:16:20;6.30;99.90
65462;DHT22;53236;43.666;18.444;2022-12-29T18:18:46;6.00;99.90
65462;DHT22;53236;43.666;18.444;2022-12-29T18:21:17;6.00;99.90
65462;DHT22;53236;43.666;18.444;2022-12-29T18:23:44;6.20;99.90
65462;DHT22;53236;43.666;18.444;2022-12-29T18:26:19;5.80;99.90
65462;DHT22;53236;43.666;18.444;2022-12-29T18:28:45;5.60;99.90
65462;DHT22;53236;43.666;18.444;2022-12-29T18:31:23;5.70;99.90
65462;DHT22;53236;43.666;18.444;2022-12-29T18:33:50;5.90;99.90
65462;DHT22;53236;43.666;18.444;2022-12-29T18:36:16;6.00;99.90
65462;DHT22;53236;43.666;18.444;2022-12-29T18:38:42;6.10;99.90